OKPHM LKPR-LOWI
Flight info
| Callsign | OKPHM |
|---|---|
| Flight time | 0h 49m |
| Altitude | 30000 |
| Route | DOBEN DCT RUDAP P31 DOSEL/N0429F290 M736 TULSI TULSI3A |
| Aircraft | E55P/M-SBDFGHJ2RWY/LB2 |
Departure
| Time | 2026-05-06 17:02 |
|---|---|
| Airport | Václav Havel Airport Prague (LKPR) |
Arrival
| Time | 2026-05-06 17:51 |
|---|---|
| Airport | Innsbruck Airport (LOWI) |
| Time | Latitude | Longitude | Altitude | Speed | Heading |
|---|---|---|---|---|---|
| 2026-05-06 16:43 | 50.09839 | 14.28544 | 1195 ft | 0 kts | 167° |
| 2026-05-06 16:57 | 50.09838 | 14.28544 | 1195 ft | 0 kts | 167° |
| 2026-05-06 16:57 | 50.09813 | 14.28542 | 1196 ft | 5 kts | 200° |
| 2026-05-06 16:58 | 50.09799 | 14.28510 | 1196 ft | 3 kts | 269° |
| 2026-05-06 16:58 | 50.09787 | 14.28451 | 1197 ft | 8 kts | 238° |
| 2026-05-06 16:58 | 50.09747 | 14.28340 | 1198 ft | 15 kts | 241° |
| 2026-05-06 16:58 | 50.09688 | 14.28173 | 1197 ft | 17 kts | 241° |
| 2026-05-06 16:59 | 50.09636 | 14.28025 | 1199 ft | 13 kts | 239° |
| 2026-05-06 16:59 | 50.09598 | 14.27917 | 1202 ft | 10 kts | 239° |
| 2026-05-06 16:59 | 50.09560 | 14.27810 | 1204 ft | 12 kts | 241° |
| 2026-05-06 16:59 | 50.09536 | 14.27779 | 1205 ft | 4 kts | 136° |
| 2026-05-06 17:00 | 50.09497 | 14.27840 | 1208 ft | 11 kts | 135° |
| 2026-05-06 17:00 | 50.09438 | 14.27933 | 1210 ft | 12 kts | 129° |
| 2026-05-06 17:00 | 50.09373 | 14.28030 | 1213 ft | 13 kts | 139° |
| 2026-05-06 17:00 | 50.09306 | 14.28132 | 1216 ft | 14 kts | 133° |
| 2026-05-06 17:01 | 50.09227 | 14.28244 | 1220 ft | 15 kts | 150° |
| 2026-05-06 17:01 | 50.09131 | 14.28228 | 1225 ft | 13 kts | 212° |
| 2026-05-06 17:01 | 50.09076 | 14.28120 | 1227 ft | 12 kts | 263° |
| 2026-05-06 17:01 | 50.09162 | 14.27913 | 1224 ft | 49 kts | 306° |
| 2026-05-06 17:02 | 50.09502 | 14.27206 | 1214 ft | 111 kts | 307° |
| 2026-05-06 17:02 | 50.10020 | 14.26130 | 1436 ft | 134 kts | 306° |
| 2026-05-06 17:02 | 50.10577 | 14.24936 | 2105 ft | 138 kts | 304° |
| 2026-05-06 17:02 | 50.11164 | 14.23651 | 2584 ft | 161 kts | 306° |
| 2026-05-06 17:03 | 50.11917 | 14.22159 | 2776 ft | 180 kts | 307° |
| 2026-05-06 17:03 | 50.12721 | 14.20532 | 3486 ft | 203 kts | 306° |
| 2026-05-06 17:03 | 50.13621 | 14.18682 | 4199 ft | 227 kts | 306° |
| 2026-05-06 17:03 | 50.14599 | 14.16661 | 4929 ft | 246 kts | 306° |
| 2026-05-06 17:04 | 50.15656 | 14.14465 | 5713 ft | 263 kts | 306° |
| 2026-05-06 17:04 | 50.16766 | 14.12160 | 6458 ft | 279 kts | 306° |
| 2026-05-06 17:04 | 50.17871 | 14.09560 | 7139 ft | 292 kts | 291° |
| 2026-05-06 17:04 | 50.18061 | 14.06439 | 7805 ft | 302 kts | 260° |
| 2026-05-06 17:05 | 50.17144 | 14.03448 | 8462 ft | 315 kts | 231° |
| 2026-05-06 17:05 | 50.15375 | 14.01438 | 9135 ft | 327 kts | 210° |
| 2026-05-06 17:05 | 50.13336 | 13.99714 | 9822 ft | 336 kts | 210° |
| 2026-05-06 17:05 | 50.11263 | 13.97977 | 10501 ft | 343 kts | 210° |
| 2026-05-06 17:06 | 50.09191 | 13.96245 | 11167 ft | 345 kts | 210° |
| 2026-05-06 17:06 | 50.07059 | 13.94463 | 11847 ft | 347 kts | 210° |
| 2026-05-06 17:06 | 50.04955 | 13.92709 | 12515 ft | 348 kts | 210° |
| 2026-05-06 17:06 | 50.02805 | 13.90920 | 13195 ft | 349 kts | 210° |
| 2026-05-06 17:07 | 50.00689 | 13.89158 | 13864 ft | 349 kts | 210° |
| 2026-05-06 17:07 | 49.98573 | 13.87397 | 14530 ft | 350 kts | 211° |
| 2026-05-06 17:07 | 49.96424 | 13.85612 | 15206 ft | 350 kts | 211° |
| 2026-05-06 17:07 | 49.94289 | 13.83839 | 15876 ft | 352 kts | 211° |
| 2026-05-06 17:08 | 49.92135 | 13.82053 | 16549 ft | 353 kts | 212° |
| 2026-05-06 17:08 | 49.89958 | 13.80249 | 17225 ft | 354 kts | 212° |
| 2026-05-06 17:08 | 49.87811 | 13.78473 | 17894 ft | 354 kts | 213° |
| 2026-05-06 17:08 | 49.85642 | 13.76679 | 18569 ft | 354 kts | 213° |
| 2026-05-06 17:09 | 49.83468 | 13.74883 | 19245 ft | 354 kts | 213° |
| 2026-05-06 17:09 | 49.81312 | 13.73105 | 19915 ft | 353 kts | 214° |
| 2026-05-06 17:09 | 49.79155 | 13.71326 | 20586 ft | 352 kts | 214° |
| 2026-05-06 17:09 | 49.77022 | 13.69570 | 21251 ft | 351 kts | 215° |
| 2026-05-06 17:10 | 49.74879 | 13.67807 | 21921 ft | 349 kts | 216° |
| 2026-05-06 17:10 | 49.72763 | 13.66069 | 22585 ft | 346 kts | 216° |
| 2026-05-06 17:10 | 49.70641 | 13.64327 | 23255 ft | 343 kts | 217° |
| 2026-05-06 17:10 | 49.68570 | 13.62628 | 23914 ft | 340 kts | 217° |
| 2026-05-06 17:11 | 49.66485 | 13.60921 | 24582 ft | 337 kts | 218° |
| 2026-05-06 17:11 | 49.64430 | 13.59237 | 25246 ft | 337 kts | 218° |
| 2026-05-06 17:11 | 49.62357 | 13.57540 | 25914 ft | 339 kts | 219° |
| 2026-05-06 17:11 | 49.60292 | 13.55853 | 26516 ft | 340 kts | 219° |
| 2026-05-06 17:12 | 49.58201 | 13.54145 | 27056 ft | 342 kts | 219° |
| 2026-05-06 17:12 | 49.56110 | 13.52440 | 27582 ft | 343 kts | 219° |
| 2026-05-06 17:12 | 49.53983 | 13.50700 | 27727 ft | 357 kts | 219° |
| 2026-05-06 17:12 | 49.51747 | 13.48877 | 27748 ft | 373 kts | 219° |
| 2026-05-06 17:13 | 49.49386 | 13.46958 | 27750 ft | 390 kts | 218° |
| 2026-05-06 17:13 | 49.46958 | 13.44987 | 27750 ft | 405 kts | 218° |
| 2026-05-06 17:13 | 49.44434 | 13.42942 | 27749 ft | 418 kts | 218° |
| 2026-05-06 17:13 | 49.41854 | 13.40852 | 27748 ft | 428 kts | 217° |
| 2026-05-06 17:14 | 49.39201 | 13.38706 | 27747 ft | 437 kts | 217° |
| 2026-05-06 17:14 | 49.36478 | 13.36506 | 27752 ft | 445 kts | 217° |
| 2026-05-06 17:14 | 49.33746 | 13.34307 | 28195 ft | 442 kts | 217° |
| 2026-05-06 17:14 | 49.31074 | 13.32155 | 28721 ft | 437 kts | 217° |
| 2026-05-06 17:15 | 49.28397 | 13.30000 | 29252 ft | 433 kts | 217° |
| 2026-05-06 17:15 | 49.25747 | 13.27867 | 29676 ft | 432 kts | 218° |
| 2026-05-06 17:15 | 49.23053 | 13.25759 | 29749 ft | 441 kts | 216° |
| 2026-05-06 17:16 | 49.17504 | 13.21583 | 29757 ft | 446 kts | 216° |
| 2026-05-06 17:16 | 49.12007 | 13.17463 | 29756 ft | 438 kts | 217° |
| 2026-05-06 17:17 | 49.06579 | 13.13413 | 29757 ft | 432 kts | 217° |
| 2026-05-06 17:17 | 49.01226 | 13.09430 | 29757 ft | 427 kts | 217° |
| 2026-05-06 17:18 | 48.95935 | 13.05494 | 29756 ft | 424 kts | 216° |
| 2026-05-06 17:18 | 48.90682 | 13.01609 | 29756 ft | 422 kts | 216° |
| 2026-05-06 17:19 | 48.85435 | 12.97735 | 29745 ft | 419 kts | 216° |
| 2026-05-06 17:19 | 48.80188 | 12.93865 | 29746 ft | 423 kts | 216° |
| 2026-05-06 17:20 | 48.74868 | 12.89951 | 29747 ft | 432 kts | 216° |
| 2026-05-06 17:20 | 48.72384 | 12.87509 | 29745 ft | 414 kts | 232° |
| 2026-05-06 17:20 | 48.70255 | 12.84583 | 29748 ft | 417 kts | 232° |
| 2026-05-06 17:21 | 48.65962 | 12.78649 | 29746 ft | 424 kts | 232° |
| 2026-05-06 17:21 | 48.61602 | 12.72622 | 29746 ft | 430 kts | 232° |
| 2026-05-06 17:22 | 48.57189 | 12.66505 | 29746 ft | 434 kts | 232° |
| 2026-05-06 17:22 | 48.52722 | 12.60314 | 29745 ft | 438 kts | 232° |
| 2026-05-06 17:23 | 48.48254 | 12.54138 | 29745 ft | 440 kts | 232° |
| 2026-05-06 17:23 | 48.43731 | 12.47915 | 29743 ft | 443 kts | 231° |
| 2026-05-06 17:24 | 48.39039 | 12.41912 | 29744 ft | 444 kts | 230° |
| 2026-05-06 17:24 | 48.34362 | 12.35949 | 29569 ft | 433 kts | 230° |
| 2026-05-06 17:24 | 48.32118 | 12.33098 | 29238 ft | 420 kts | 230° |
| 2026-05-06 17:25 | 48.29911 | 12.30290 | 28814 ft | 411 kts | 230° |
| 2026-05-06 17:25 | 48.27763 | 12.27557 | 28396 ft | 403 kts | 230° |
| 2026-05-06 17:25 | 48.25655 | 12.24882 | 27978 ft | 395 kts | 230° |
| 2026-05-06 17:25 | 48.23569 | 12.22234 | 27530 ft | 389 kts | 230° |
| 2026-05-06 17:26 | 48.21538 | 12.19658 | 27014 ft | 385 kts | 229° |
| 2026-05-06 17:26 | 48.19498 | 12.17075 | 26492 ft | 381 kts | 229° |
| 2026-05-06 17:26 | 48.17506 | 12.14556 | 25977 ft | 377 kts | 229° |
| 2026-05-06 17:26 | 48.15502 | 12.12025 | 25454 ft | 373 kts | 229° |
| 2026-05-06 17:27 | 48.13556 | 12.09572 | 24940 ft | 369 kts | 229° |
| 2026-05-06 17:27 | 48.11589 | 12.07093 | 24414 ft | 366 kts | 228° |
| 2026-05-06 17:27 | 48.09681 | 12.04691 | 23899 ft | 362 kts | 228° |
| 2026-05-06 17:27 | 48.07752 | 12.02265 | 23373 ft | 359 kts | 228° |
| 2026-05-06 17:28 | 48.05850 | 11.99876 | 22849 ft | 355 kts | 227° |
| 2026-05-06 17:28 | 48.03984 | 11.97535 | 22329 ft | 352 kts | 227° |
| 2026-05-06 17:28 | 48.02125 | 11.95205 | 21807 ft | 349 kts | 227° |
| 2026-05-06 17:28 | 48.00287 | 11.92902 | 21285 ft | 346 kts | 227° |
| 2026-05-06 17:29 | 47.98454 | 11.90610 | 20684 ft | 342 kts | 226° |
| 2026-05-06 17:29 | 47.96649 | 11.88353 | 19928 ft | 336 kts | 226° |
| 2026-05-06 17:29 | 47.94875 | 11.86136 | 19173 ft | 331 kts | 226° |
| 2026-05-06 17:29 | 47.93133 | 11.83962 | 18421 ft | 326 kts | 225° |
| 2026-05-06 17:30 | 47.91418 | 11.81824 | 17670 ft | 322 kts | 225° |
| 2026-05-06 17:30 | 47.89476 | 11.80197 | 16901 ft | 335 kts | 201° |
| 2026-05-06 17:30 | 47.87140 | 11.79864 | 16148 ft | 337 kts | 189° |
| 2026-05-06 17:30 | 47.84833 | 11.79713 | 15400 ft | 334 kts | 188° |
| 2026-05-06 17:31 | 47.82532 | 11.79575 | 14647 ft | 330 kts | 187° |
| 2026-05-06 17:31 | 47.80268 | 11.79441 | 13926 ft | 327 kts | 187° |
| 2026-05-06 17:31 | 47.78004 | 11.79312 | 13205 ft | 324 kts | 187° |
| 2026-05-06 17:31 | 47.75783 | 11.79060 | 12483 ft | 317 kts | 197° |
| 2026-05-06 17:32 | 47.73962 | 11.77499 | 11923 ft | 301 kts | 228° |
| 2026-05-06 17:32 | 47.72883 | 11.74970 | 11815 ft | 282 kts | 241° |
| 2026-05-06 17:32 | 47.71936 | 11.72481 | 11756 ft | 272 kts | 242° |
| 2026-05-06 17:32 | 47.71027 | 11.70053 | 11793 ft | 270 kts | 242° |
| 2026-05-06 17:33 | 47.70131 | 11.67615 | 11791 ft | 270 kts | 240° |
| 2026-05-06 17:33 | 47.69215 | 11.65169 | 11785 ft | 271 kts | 240° |
| 2026-05-06 17:33 | 47.68307 | 11.62741 | 11784 ft | 271 kts | 240° |
| 2026-05-06 17:33 | 47.67396 | 11.60290 | 11797 ft | 271 kts | 240° |
| 2026-05-06 17:34 | 47.66486 | 11.57836 | 11784 ft | 275 kts | 240° |
| 2026-05-06 17:34 | 47.65520 | 11.55227 | 11788 ft | 297 kts | 240° |
| 2026-05-06 17:34 | 47.64521 | 11.52526 | 11785 ft | 300 kts | 240° |
| 2026-05-06 17:34 | 47.63514 | 11.49810 | 11799 ft | 303 kts | 240° |
| 2026-05-06 17:35 | 47.62495 | 11.47059 | 11785 ft | 305 kts | 240° |
| 2026-05-06 17:35 | 47.61468 | 11.44290 | 11787 ft | 307 kts | 240° |
| 2026-05-06 17:35 | 47.60439 | 11.41517 | 11785 ft | 308 kts | 240° |
| 2026-05-06 17:36 | 47.58376 | 11.35972 | 11783 ft | 310 kts | 240° |
| 2026-05-06 17:36 | 47.57329 | 11.33161 | 11785 ft | 311 kts | 240° |
| 2026-05-06 17:36 | 47.56279 | 11.30347 | 11787 ft | 312 kts | 240° |
| 2026-05-06 17:36 | 47.55224 | 11.27518 | 11786 ft | 313 kts | 240° |
| 2026-05-06 17:37 | 47.54183 | 11.24731 | 11817 ft | 314 kts | 240° |
| 2026-05-06 17:37 | 47.53111 | 11.21866 | 11789 ft | 315 kts | 240° |
| 2026-05-06 17:37 | 47.52051 | 11.19036 | 11788 ft | 315 kts | 240° |
| 2026-05-06 17:37 | 47.50990 | 11.16206 | 11785 ft | 315 kts | 240° |
| 2026-05-06 17:38 | 47.49936 | 11.13398 | 11801 ft | 316 kts | 240° |
| 2026-05-06 17:38 | 47.48856 | 11.10522 | 11632 ft | 321 kts | 240° |
| 2026-05-06 17:38 | 47.47793 | 11.07692 | 11511 ft | 305 kts | 240° |
| 2026-05-06 17:38 | 47.46798 | 11.05049 | 11514 ft | 283 kts | 240° |
| 2026-05-06 17:39 | 47.45885 | 11.02622 | 11506 ft | 261 kts | 239° |
| 2026-05-06 17:39 | 47.45035 | 11.00371 | 11489 ft | 241 kts | 239° |
| 2026-05-06 17:39 | 47.44243 | 10.98274 | 11487 ft | 226 kts | 239° |
| 2026-05-06 17:39 | 47.43470 | 10.96227 | 11503 ft | 235 kts | 239° |
| 2026-05-06 17:40 | 47.42648 | 10.94062 | 11507 ft | 244 kts | 240° |
| 2026-05-06 17:40 | 47.41817 | 10.91863 | 11498 ft | 248 kts | 240° |
| 2026-05-06 17:40 | 47.40977 | 10.89639 | 11493 ft | 249 kts | 240° |
| 2026-05-06 17:40 | 47.40125 | 10.87395 | 11513 ft | 251 kts | 240° |
| 2026-05-06 17:41 | 47.39277 | 10.85158 | 11435 ft | 254 kts | 239° |
| 2026-05-06 17:41 | 47.38407 | 10.82864 | 11236 ft | 256 kts | 239° |
| 2026-05-06 17:41 | 47.37542 | 10.80586 | 11036 ft | 256 kts | 239° |
| 2026-05-06 17:41 | 47.36670 | 10.78296 | 10838 ft | 256 kts | 239° |
| 2026-05-06 17:42 | 47.35797 | 10.76000 | 10651 ft | 255 kts | 239° |
| 2026-05-06 17:42 | 47.34580 | 10.74229 | 10613 ft | 247 kts | 207° |
| 2026-05-06 17:42 | 47.32932 | 10.73947 | 10600 ft | 246 kts | 170° |
| 2026-05-06 17:42 | 47.31499 | 10.75255 | 10598 ft | 251 kts | 134° |
| 2026-05-06 17:43 | 47.30545 | 10.77386 | 10597 ft | 246 kts | 128° |
| 2026-05-06 17:43 | 47.29643 | 10.79516 | 10599 ft | 241 kts | 127° |
| 2026-05-06 17:43 | 47.28979 | 10.81714 | 10592 ft | 240 kts | 100° |
| 2026-05-06 17:43 | 47.29122 | 10.84234 | 10602 ft | 247 kts | 86° |
| 2026-05-06 17:44 | 47.29328 | 10.86731 | 10598 ft | 244 kts | 88° |
| 2026-05-06 17:44 | 47.29491 | 10.89193 | 10357 ft | 242 kts | 88° |
| 2026-05-06 17:44 | 47.29663 | 10.91672 | 10052 ft | 243 kts | 85° |
| 2026-05-06 17:44 | 47.29904 | 10.94118 | 9771 ft | 243 kts | 86° |
| 2026-05-06 17:45 | 47.30123 | 10.96579 | 9455 ft | 243 kts | 90° |
| 2026-05-06 17:45 | 47.30215 | 10.99063 | 9137 ft | 244 kts | 90° |
| 2026-05-06 17:45 | 47.30308 | 11.01576 | 8762 ft | 247 kts | 91° |
| 2026-05-06 17:45 | 47.30400 | 11.04093 | 8404 ft | 248 kts | 91° |
| 2026-05-06 17:46 | 47.30492 | 11.06637 | 7950 ft | 249 kts | 91° |
| 2026-05-06 17:46 | 47.30542 | 11.09057 | 7513 ft | 216 kts | 101° |
| 2026-05-06 17:46 | 47.30268 | 11.11052 | 7172 ft | 186 kts | 109° |
| 2026-05-06 17:46 | 47.29899 | 11.12717 | 6886 ft | 163 kts | 115° |
| 2026-05-06 17:47 | 47.29514 | 11.14286 | 6612 ft | 159 kts | 115° |
| 2026-05-06 17:47 | 47.29125 | 11.15831 | 6238 ft | 162 kts | 115° |
| 2026-05-06 17:47 | 47.28768 | 11.17348 | 5991 ft | 154 kts | 112° |
| 2026-05-06 17:47 | 47.28413 | 11.18821 | 5604 ft | 155 kts | 115° |
| 2026-05-06 17:48 | 47.28065 | 11.20270 | 5414 ft | 140 kts | 114° |
| 2026-05-06 17:48 | 47.27774 | 11.21605 | 5024 ft | 134 kts | 116° |
| 2026-05-06 17:48 | 47.27400 | 11.22797 | 4685 ft | 124 kts | 119° |
| 2026-05-06 17:48 | 47.27075 | 11.23955 | 4413 ft | 115 kts | 117° |
| 2026-05-06 17:49 | 47.26779 | 11.24995 | 4118 ft | 111 kts | 117° |
| 2026-05-06 17:49 | 47.26522 | 11.26082 | 3820 ft | 110 kts | 112° |
| 2026-05-06 17:49 | 47.26302 | 11.27146 | 3529 ft | 108 kts | 110° |
| 2026-05-06 17:49 | 47.26075 | 11.28192 | 3241 ft | 106 kts | 111° |
| 2026-05-06 17:50 | 47.25876 | 11.29255 | 2886 ft | 115 kts | 107° |
| 2026-05-06 17:50 | 47.25756 | 11.30397 | 2668 ft | 108 kts | 99° |
| 2026-05-06 17:50 | 47.25755 | 11.31514 | 2338 ft | 111 kts | 91° |
| 2026-05-06 17:50 | 47.25838 | 11.32614 | 2061 ft | 108 kts | 87° |
| 2026-05-06 17:51 | 47.25942 | 11.33639 | 1932 ft | 90 kts | 83° |
| 2026-05-06 17:51 | 47.26023 | 11.34425 | 1900 ft | 53 kts | 78° |
| 2026-05-06 17:51 | 47.26074 | 11.34909 | 1897 ft | 29 kts | 78° |
| 2026-05-06 17:51 | 47.26104 | 11.35180 | 1893 ft | 21 kts | 84° |
| 2026-05-06 17:52 | 47.26058 | 11.35258 | 1893 ft | 9 kts | 169° |
| 2026-05-06 17:52 | 47.26002 | 11.35272 | 1893 ft | 6 kts | 171° |
| 2026-05-06 17:52 | 47.25967 | 11.35280 | 1893 ft | 5 kts | 172° |
| 2026-05-06 17:52 | 47.25938 | 11.35291 | 1893 ft | 5 kts | 143° |
| 2026-05-06 17:53 | 47.25925 | 11.35352 | 1893 ft | 7 kts | 84° |
| 2026-05-06 17:53 | 47.25917 | 11.35364 | 1893 ft | 0 kts | 263° |